Time;durP1;ratioP1;P1;durP2;ratioP2;P2;SDS_P1;SDS_P2;PMS_P1;PMS_P2;Temp;Humidity;BMP_temperature;BMP_pressure;BME280_temperature;BME280_humidity;BME280_pressure;Samples;Min_cycle;Max_cycle;Signal;HPM_P1;HPM_P2
2023/01/19 00:00:22;;;;;;;3.33;2.20;;;9.50;99.90;;;;;;6159243;23;20165;-72
2023/01/19 00:02:49;;;;;;;4.33;2.50;;;9.40;99.90;;;;;;6158281;23;20161;-73
2023/01/19 00:05:16;;;;;;;2.20;2.00;;;9.40;99.90;;;;;;6122669;23;20542;-72
2023/01/19 00:07:42;;;;;;;3.43;2.37;;;9.40;99.90;;;;;;6124198;23;20252;-72
2023/01/19 00:10:10;;;;;;;2.60;1.90;;;9.40;99.90;;;;;;6145276;23;20188;-72
2023/01/19 00:12:36;;;;;;;2.77;2.27;;;9.40;99.90;;;;;;6159316;23;20164;-72
2023/01/19 00:15:03;;;;;;;3.70;2.13;;;9.40;99.90;;;;;;6158739;23;20172;-72
2023/01/19 00:17:30;;;;;;;4.80;2.50;;;9.60;99.90;;;;;;6159781;23;20169;-72
2023/01/19 00:19:56;;;;;;;3.53;2.20;;;9.70;99.90;;;;;;6123986;23;20482;-72
2023/01/19 00:22:22;;;;;;;3.90;2.37;;;9.70;99.90;;;;;;6159895;23;20160;-72
2023/01/19 00:24:49;;;;;;;3.53;2.57;;;9.70;99.90;;;;;;6123275;23;20251;-72
2023/01/19 00:27:15;;;;;;;2.30;2.10;;;9.70;99.90;;;;;;6160318;23;20223;-72
2023/01/19 00:29:45;;;;;;;5.00;2.57;;;9.70;99.90;;;;;;6123768;23;20211;-72
2023/01/19 00:32:11;;;;;;;2.90;2.53;;;9.70;99.90;;;;;;6159067;23;20551;-72
2023/01/19 00:34:41;;;;;;;2.53;2.30;;;9.70;99.90;;;;;;6122362;23;20165;-72
2023/01/19 00:37:11;;;;;;;2.70;2.40;;;9.70;99.90;;;;;;6159654;23;20157;-73
2023/01/19 00:39:37;;;;;;;4.80;2.33;;;9.60;99.90;;;;;;6160228;23;20170;-72
2023/01/19 00:44:49;;;;;;;2.57;2.20;;;9.40;99.90;;;;;;6122470;23;20188;-72
2023/01/19 00:47:15;;;;;;;2.40;2.20;;;9.40;99.90;;;;;;6155937;23;20165;-72
2023/01/19 00:49:43;;;;;;;2.77;2.30;;;9.40;99.90;;;;;;6158381;23;20239;-72
2023/01/19 00:52:12;;;;;;;3.23;2.40;;;9.50;99.90;;;;;;6121467;23;20629;-72
2023/01/19 00:54:38;;;;;;;2.10;1.90;;;9.50;99.90;;;;;;6121726;23;20161;-72
2023/01/19 00:57:05;;;;;;;2.97;1.90;;;9.40;99.90;;;;;;6121815;23;20619;-72
2023/01/19 00:59:32;;;;;;;3.50;2.20;;;9.30;99.90;;;;;;6122420;23;20224;-72
2023/01/19 01:02:01;;;;;;;5.83;2.27;;;9.30;99.90;;;;;;6119236;23;20215;-72
2023/01/19 01:04:28;;;;;;;2.50;2.13;;;9.20;99.90;;;;;;6121602;23;20256;-72
2023/01/19 01:06:54;;;;;;;1.83;1.73;;;9.20;99.90;;;;;;6121386;23;20165;-72
2023/01/19 01:09:23;;;;;;;3.90;2.23;;;9.20;99.90;;;;;;6121248;23;20196;-72
2023/01/19 01:11:50;;;;;;;2.10;1.90;;;9.20;99.90;;;;;;6157048;23;20531;-72
2023/01/19 01:14:18;;;;;;;5.50;2.70;;;9.20;99.90;;;;;;6157605;23;20240;-72
2023/01/19 01:16:45;;;;;;;3.70;2.10;;;9.20;99.90;;;;;;6120994;23;20173;-72
2023/01/19 01:19:12;;;;;;;3.43;2.27;;;9.20;99.90;;;;;;6158059;23;20164;-72
2023/01/19 01:21:40;;;;;;;3.40;2.40;;;9.20;99.90;;;;;;6120063;23;20224;-72
2023/01/19 01:24:11;;;;;;;2.70;2.30;;;9.20;99.90;;;;;;6121516;23;20502;-72
2023/01/19 01:26:38;;;;;;;2.70;2.17;;;9.20;99.90;;;;;;6122029;23;20164;-73
2023/01/19 01:29:05;;;;;;;4.37;2.17;;;9.20;99.90;;;;;;6158372;23;20208;-72
2023/01/19 01:31:32;;;;;;;3.10;2.20;;;9.20;99.90;;;;;;6118963;23;20280;-72
2023/01/19 01:33:58;;;;;;;2.83;2.23;;;9.20;99.90;;;;;;6146133;23;20161;-72
2023/01/19 01:36:27;;;;;;;3.23;2.40;;;9.20;99.90;;;;;;6122210;23;20796;-72
2023/01/19 01:38:54;;;;;;;4.72;2.30;;;9.20;99.90;;;;;;6119330;23;20643;-72
2023/01/19 01:41:23;;;;;;;3.97;2.13;;;9.20;99.90;;;;;;6158129;23;20164;-73
2023/01/19 01:43:57;;;;;;;3.30;2.23;;;9.30;99.90;;;;;;6157190;23;20165;-72
2023/01/19 01:46:25;;;;;;;3.67;2.43;;;9.30;99.90;;;;;;6155198;23;20163;-72
2023/01/19 01:49:12;;;;;;;3.50;2.50;;;9.30;99.90;;;;;;6097953;23;20161;-73
2023/01/19 01:51:53;;;;;;;4.40;2.27;;;9.40;99.90;;;;;;6157158;23;20506;-72
2023/01/19 01:54:28;;;;;;;3.73;2.47;;;9.40;99.90;;;;;;6121476;23;20165;-73
2023/01/19 01:57:02;;;;;;;3.20;2.23;;;9.40;99.90;;;;;;6156938;23;20165;-72
2023/01/19 01:59:37;;;;;;;3.33;2.60;;;9.40;99.90;;;;;;6157108;23;20165;-72
2023/01/19 02:05:14;;;;;;;2.90;2.60;;;9.50;99.90;;;;;;6156675;23;20599;-73
2023/01/19 02:13:43;;;;;;;3.30;2.57;;;9.50;99.90;;;;;;6157823;23;20153;-73
2023/01/19 02:16:19;;;;;;;4.23;2.93;;;9.50;99.90;;;;;;6119228;23;20557;-72
2023/01/19 02:18:45;;;;;;;3.83;2.60;;;9.50;99.90;;;;;;6096929;23;20168;-72
2023/01/19 02:21:22;;;;;;;2.57;2.37;;;9.50;99.90;;;;;;6095670;23;20212;-72
2023/01/19 02:23:56;;;;;;;5.23;2.67;;;9.50;99.90;;;;;;6157260;23;20156;-72
2023/01/19 02:26:33;;;;;;;4.17;2.60;;;9.50;99.90;;;;;;6121475;23;20252;-72
2023/01/19 02:29:08;;;;;;;5.27;2.70;;;9.50;99.90;;;;;;6097716;23;20164;-72
2023/01/19 02:31:38;;;;;;;3.07;2.70;;;9.40;99.90;;;;;;6119871;23;20255;-72
2023/01/19 02:34:09;;;;;;;3.03;2.40;;;9.40;99.90;;;;;;6120490;23;20169;-73
2023/01/19 02:36:48;;;;;;;7.33;2.77;;;9.40;99.90;;;;;;6157543;23;20157;-72
2023/01/19 02:39:18;;;;;;;3.73;2.70;;;9.40;99.90;;;;;;6121257;23;20259;-72
2023/01/19 02:41:53;;;;;;;3.07;2.50;;;9.40;99.90;;;;;;6096919;23;20219;-73
2023/01/19 02:44:22;;;;;;;3.70;2.43;;;9.40;99.90;;;;;;6155738;23;20264;-73
2023/01/19 02:46:52;;;;;;;2.80;2.60;;;9.40;99.90;;;;;;6118875;23;20243;-73
2023/01/19 02:49:18;;;;;;;2.83;2.57;;;9.40;99.90;;;;;;6120956;23;20161;-73
2023/01/19 02:51:46;;;;;;;3.73;2.80;;;9.40;99.90;;;;;;6145956;23;20168;-73
2023/01/19 02:54:49;;;;;;;7.70;2.73;;;9.40;99.90;;;;;;6095354;23;20661;-73
2023/01/19 02:57:57;;;;;;;3.23;2.83;;;9.40;99.90;;;;;;6121134;23;20240;-72
2023/01/19 03:00:42;;;;;;;5.63;2.43;;;9.40;99.90;;;;;;6003480;23;20167;-72
2023/01/19 03:03:18;;;;;;;4.90;2.70;;;9.40;99.90;;;;;;6151330;23;20168;-72
2023/01/19 03:06:03;;;;;;;4.60;2.60;;;9.40;99.90;;;;;;6120530;23;20165;-72
2023/01/19 03:08:42;;;;;;;3.13;2.83;;;9.30;99.90;;;;;;6156891;23;20165;-72
2023/01/19 03:11:12;;;;;;;4.27;2.63;;;9.30;99.90;;;;;;6120873;23;20187;-73
2023/01/19 03:13:52;;;;;;;2.87;2.43;;;9.40;99.90;;;;;;6121038;23;20695;-73
2023/01/19 03:16:47;;;;;;;2.93;2.33;;;9.40;99.90;;;;;;6154761;23;20141;-72
2023/01/19 03:19:26;;;;;;;3.27;2.40;;;9.40;99.90;;;;;;6126866;23;20253;-73
2023/01/19 03:21:59;;;;;;;2.90;2.57;;;9.40;99.90;;;;;;6091254;23;20169;-72
2023/01/19 03:24:35;;;;;;;4.47;2.67;;;9.40;99.90;;;;;;6125682;23;20491;-72
2023/01/19 03:27:12;;;;;;;4.17;2.80;;;9.30;99.90;;;;;;6067712;23;20173;-72
2023/01/19 03:29:49;;;;;;;4.10;2.70;;;9.40;99.90;;;;;;6128087;23;20794;-73
2023/01/19 03:32:23;;;;;;;2.50;2.30;;;9.40;99.90;;;;;;6089375;23;20165;-72
2023/01/19 03:34:51;;;;;;;3.50;2.50;;;9.40;99.90;;;;;;6126606;23;20188;-73
2023/01/19 03:37:21;;;;;;;4.63;2.70;;;9.40;99.90;;;;;;6090592;23;20173;-72
2023/01/19 03:39:48;;;;;;;2.70;2.37;;;9.40;99.90;;;;;;6090056;23;20165;-72
2023/01/19 03:42:17;;;;;;;2.50;2.30;;;9.40;99.90;;;;;;6091116;23;20173;-73
2023/01/19 03:44:49;;;;;;;3.20;2.57;;;9.40;99.90;;;;;;6066824;23;20165;-73
2023/01/19 03:47:19;;;;;;;2.87;2.43;;;9.40;99.90;;;;;;6125089;23;20273;-72
2023/01/19 03:49:49;;;;;;;2.97;2.67;;;9.40;99.90;;;;;;6091134;23;20201;-72
2023/01/19 03:52:15;;;;;;;3.40;2.67;;;9.40;99.90;;;;;;6091532;23;20162;-72
2023/01/19 03:54:42;;;;;;;2.97;2.50;;;9.40;99.90;;;;;;6126034;23;20154;-72
2023/01/19 03:57:11;;;;;;;4.03;2.47;;;9.50;99.90;;;;;;6126813;23;20162;-72
2023/01/19 03:59:37;;;;;;;3.20;2.50;;;9.50;99.90;;;;;;6092099;23;20172;-72
2023/01/19 04:02:07;;;;;;;4.47;2.90;;;9.40;99.90;;;;;;6065307;23;20165;-73
2023/01/19 04:04:33;;;;;;;2.73;2.43;;;9.40;99.90;;;;;;6090300;23;20165;-72
2023/01/19 04:07:00;;;;;;;3.47;2.50;;;9.40;99.90;;;;;;6091250;23;20165;-72
2023/01/19 04:09:26;;;;;;;2.93;2.37;;;9.40;99.90;;;;;;6126905;23;20165;-73
2023/01/19 04:11:52;;;;;;;6.30;2.70;;;9.50;99.90;;;;;;6066274;23;20600;-72
2023/01/19 04:14:20;;;;;;;2.90;2.60;;;9.40;99.90;;;;;;6126979;23;20436;-73
2023/01/19 04:16:46;;;;;;;5.60;2.77;;;9.40;99.90;;;;;;6130902;23;20172;-73
2023/01/19 04:19:13;;;;;;;3.13;2.60;;;9.40;99.90;;;;;;6119677;23;20820;-72
2023/01/19 04:21:40;;;;;;;6.03;2.43;;;9.40;99.90;;;;;;6121052;23;20164;-72
2023/01/19 04:24:10;;;;;;;3.40;3.10;;;9.30;99.90;;;;;;6097339;23;20167;-72
2023/01/19 04:26:36;;;;;;;3.53;2.77;;;9.30;99.90;;;;;;6146852;23;20215;-72
2023/01/19 04:29:06;;;;;;;3.60;3.00;;;9.30;99.90;;;;;;6097454;23;20156;-72
2023/01/19 04:31:34;;;;;;;3.87;2.77;;;9.20;99.90;;;;;;6157810;23;20180;-72
2023/01/19 04:34:01;;;;;;;3.87;2.67;;;9.20;99.90;;;;;;6121720;23;20153;-72
2023/01/19 04:36:28;;;;;;;2.60;2.40;;;9.10;99.90;;;;;;6121844;23;20307;-72
2023/01/19 04:38:58;;;;;;;5.13;2.83;;;9.10;99.90;;;;;;6122024;23;20161;-72
2023/01/19 04:41:24;;;;;;;7.73;3.27;;;9.10;99.90;;;;;;6122440;23;20551;-72
2023/01/19 04:43:52;;;;;;;5.43;3.40;;;9.10;99.90;;;;;;6157888;23;20164;-73
2023/01/19 04:46:18;;;;;;;4.17;3.20;;;9.00;99.90;;;;;;6155515;23;20488;-73
2023/01/19 04:48:45;;;;;;;4.30;2.93;;;9.00;99.90;;;;;;6156362;23;20160;-72
2023/01/19 04:51:14;;;;;;;3.27;2.60;;;9.00;99.90;;;;;;6122053;23;20239;-73
2023/01/19 04:53:40;;;;;;;2.93;2.63;;;9.00;99.90;;;;;;6097745;23;20199;-72
2023/01/19 04:56:07;;;;;;;3.03;2.50;;;9.00;99.90;;;;;;6157290;23;20157;-72
2023/01/19 04:58:34;;;;;;;4.23;2.70;;;8.90;99.90;;;;;;6147362;23;20248;-72
2023/01/19 05:01:00;;;;;;;4.13;2.70;;;8.80;99.90;;;;;;6121010;23;20169;-72
2023/01/19 05:03:26;;;;;;;2.83;2.50;;;8.90;99.90;;;;;;6145711;23;20175;-72
2023/01/19 05:05:52;;;;;;;2.40;2.20;;;8.90;99.90;;;;;;6146578;23;20256;-73
2023/01/19 05:08:18;;;;;;;2.67;2.37;;;9.00;99.90;;;;;;6122004;23;20172;-72
2023/01/19 05:10:45;;;;;;;3.20;2.20;;;9.00;99.90;;;;;;6120962;23;20201;-72
2023/01/19 05:13:12;;;;;;;2.47;2.27;;;9.10;99.90;;;;;;6156266;23;20164;-73
2023/01/19 05:15:39;;;;;;;4.33;2.30;;;9.10;99.90;;;;;;6120668;23;20165;-72
2023/01/19 05:18:05;;;;;;;4.90;2.50;;;9.10;99.90;;;;;;6121846;23;20173;-73
2023/01/19 05:20:34;;;;;;;3.10;2.27;;;9.10;99.90;;;;;;6122942;23;20180;-72
2023/01/19 05:23:01;;;;;;;3.73;2.00;;;9.10;99.90;;;;;;6158190;23;20168;-72
2023/01/19 05:25:27;;;;;;;2.73;1.90;;;9.00;99.90;;;;;;6121317;23;20161;-72
2023/01/19 05:27:53;;;;;;;2.33;1.70;;;9.00;99.90;;;;;;6121609;23;20637;-72
2023/01/19 05:30:20;;;;;;;2.67;1.97;;;9.00;99.90;;;;;;6121489;23;20185;-73
2023/01/19 05:32:47;;;;;;;2.80;1.97;;;9.00;99.90;;;;;;6120591;23;20235;-72
2023/01/19 05:35:15;;;;;;;4.13;1.90;;;9.00;99.90;;;;;;6157175;23;20741;-72
2023/01/19 05:37:43;;;;;;;2.87;1.70;;;9.00;99.90;;;;;;6121892;23;20168;-73
2023/01/19 05:40:10;;;;;;;2.23;2.03;;;8.90;99.90;;;;;;6157146;23;20188;-72
2023/01/19 05:42:37;;;;;;;3.53;2.10;;;8.90;99.90;;;;;;6120637;23;20622;-72
2023/01/19 05:45:05;;;;;;;2.10;1.90;;;8.90;99.90;;;;;;6155542;23;20164;-72
2023/01/19 05:47:32;;;;;;;4.30;1.93;;;8.90;99.90;;;;;;6155260;23;20174;-72
2023/01/19 05:49:58;;;;;;;4.23;2.20;;;9.00;99.90;;;;;;6157828;23;20239;-72
2023/01/19 05:52:28;;;;;;;2.50;2.00;;;9.00;99.90;;;;;;6156553;23;20224;-72
2023/01/19 05:54:54;;;;;;;2.20;2.00;;;9.00;99.90;;;;;;6156592;23;20160;-72
2023/01/19 05:57:23;;;;;;;3.43;2.40;;;9.00;99.90;;;;;;6120878;23;20161;-73
2023/01/19 05:59:49;;;;;;;2.60;2.17;;;9.00;99.90;;;;;;6119365;23;20630;-73
2023/01/19 06:02:16;;;;;;;2.60;2.40;;;9.10;99.90;;;;;;6116181;23;20240;-72
2023/01/19 06:04:42;;;;;;;5.00;2.20;;;9.10;99.90;;;;;;6155085;23;20253;-72
2023/01/19 06:07:12;;;;;;;2.67;2.40;;;9.10;99.90;;;;;;6157157;23;20157;-72
2023/01/19 06:09:38;;;;;;;3.40;2.23;;;9.20;99.90;;;;;;6156539;23;20160;-72
2023/01/19 06:12:06;;;;;;;8.80;2.40;;;9.30;99.90;;;;;;6090591;23;20328;-72
2023/01/19 06:14:32;;;;;;;3.37;2.20;;;9.30;99.90;;;;;;6118482;23;20161;-72
2023/01/19 06:16:58;;;;;;;3.30;2.37;;;9.40;99.90;;;;;;6132632;23;20991;-72
2023/01/19 06:19:24;;;;;;;2.73;2.20;;;9.40;99.90;;;;;;6155246;23;20204;-73
2023/01/19 06:21:51;;;;;;;3.17;2.40;;;9.40;99.90;;;;;;6119539;23;20215;-72
2023/01/19 06:24:18;;;;;;;3.20;2.40;;;9.50;99.90;;;;;;6118939;23;20185;-73
2023/01/19 06:26:46;;;;;;;3.03;2.60;;;9.60;99.90;;;;;;6096722;23;20538;-72
2023/01/19 06:29:13;;;;;;;3.00;2.53;;;9.70;99.90;;;;;;6155353;23;20166;-72
2023/01/19 06:31:40;;;;;;;2.90;2.23;;;9.80;99.90;;;;;;6154745;23;20191;-72
2023/01/19 06:34:08;;;;;;;3.50;2.60;;;9.90;99.90;;;;;;6116813;23;20165;-72
2023/01/19 06:36:34;;;;;;;3.80;2.67;;;10.00;99.90;;;;;;6116202;23;20160;-72
2023/01/19 06:39:04;;;;;;;5.50;2.67;;;10.10;99.90;;;;;;6115707;23;20504;-73
2023/01/19 06:41:32;;;;;;;3.10;2.50;;;10.10;99.90;;;;;;6155742;23;20207;-73
2023/01/19 06:44:01;;;;;;;2.70;2.40;;;10.20;99.90;;;;;;6154967;23;20189;-72
2023/01/19 06:46:36;;;;;;;2.50;2.27;;;10.30;99.90;;;;;;6155897;23;20184;-72
2023/01/19 06:49:03;;;;;;;2.63;2.23;;;10.40;99.90;;;;;;6095257;23;20543;-72
2023/01/19 06:51:29;;;;;;;4.53;2.67;;;10.50;99.90;;;;;;6143301;23;20712;-72
2023/01/19 06:53:57;;;;;;;2.67;2.40;;;10.60;99.90;;;;;;6144890;23;20218;-72
2023/01/19 06:56:26;;;;;;;3.50;2.40;;;10.60;99.90;;;;;;6155497;23;20287;-72
2023/01/19 06:58:54;;;;;;;4.43;2.97;;;10.70;99.90;;;;;;6143862;23;20603;-72
2023/01/19 07:01:20;;;;;;;3.87;2.60;;;10.70;99.90;;;;;;6118634;23;20161;-72
2023/01/19 07:03:46;;;;;;;9.53;2.77;;;10.70;99.90;;;;;;6144031;23;20729;-72
2023/01/19 07:06:13;;;;;;;7.03;2.60;;;10.80;99.90;;;;;;6155625;23;20619;-72
2023/01/19 07:08:39;;;;;;;23.60;3.70;;;10.90;99.90;;;;;;6156592;23;20172;-72
2023/01/19 07:11:09;;;;;;;5.97;3.00;;;10.90;99.90;;;;;;6143579;23;20254;-72
2023/01/19 07:13:38;;;;;;;3.13;2.83;;;10.90;99.90;;;;;;6155547;23;20598;-72
2023/01/19 07:16:12;;;;;;;4.00;3.00;;;11.00;99.90;;;;;;6153354;23;20153;-72
2023/01/19 07:18:40;;;;;;;6.90;3.10;;;10.90;99.90;;;;;;6155207;23;20223;-72
2023/01/19 07:21:08;;;;;;;3.77;2.90;;;10.90;99.90;;;;;;6156457;23;20168;-71
2023/01/19 07:23:36;;;;;;;5.47;3.07;;;10.90;99.90;;;;;;6143225;23;20165;-72
2023/01/19 07:26:03;;;;;;;3.63;2.60;;;10.90;99.90;;;;;;6155050;23;20295;-72
2023/01/19 07:28:31;;;;;;;4.10;2.70;;;11.00;99.90;;;;;;6155194;23;20165;-71
2023/01/19 07:30:58;;;;;;;2.80;2.50;;;11.00;99.90;;;;;;6154832;23;20181;-72
2023/01/19 07:33:25;;;;;;;2.97;2.63;;;11.10;99.90;;;;;;6155332;23;20263;-72
2023/01/19 07:35:54;;;;;;;2.83;2.53;;;11.10;99.90;;;;;;6155170;23;20163;-72
2023/01/19 07:38:21;;;;;;;5.00;2.60;;;11.20;99.90;;;;;;6155178;23;20157;-72
2023/01/19 07:40:47;;;;;;;3.47;2.37;;;11.20;99.90;;;;;;6154611;23;20195;-73
2023/01/19 07:43:16;;;;;;;4.20;2.40;;;11.30;99.90;;;;;;6119861;23;20603;-72
2023/01/19 07:45:44;;;;;;;2.93;2.30;;;11.30;99.90;;;;;;6117764;23;20168;-72
2023/01/19 07:48:10;;;;;;;2.47;2.27;;;11.30;99.90;;;;;;6120025;23;20165;-72
2023/01/19 07:50:37;;;;;;;3.07;2.37;;;11.40;99.90;;;;;;6120849;23;20200;-72
2023/01/19 07:53:07;;;;;;;2.70;2.30;;;11.40;99.90;;;;;;6117145;23;20188;-72
2023/01/19 07:55:33;;;;;;;2.10;1.90;;;11.40;99.90;;;;;;6114085;23;20168;-72
2023/01/19 07:57:59;;;;;;;3.93;2.20;;;11.30;99.90;;;;;;6156175;23;20191;-72
2023/01/19 08:00:26;;;;;;;4.47;2.60;;;11.30;99.90;;;;;;6121538;23;20383;-73
2023/01/19 08:02:57;;;;;;;3.37;2.00;;;11.30;99.90;;;;;;6155695;23;20165;-72
2023/01/19 08:05:25;;;;;;;2.87;2.07;;;11.30;99.90;;;;;;6096389;23;20566;-72
2023/01/19 08:07:55;;;;;;;7.83;2.07;;;11.30;99.90;;;;;;6155574;23;20293;-72
2023/01/19 08:10:25;;;;;;;3.90;2.20;;;11.40;99.90;;;;;;6118993;23;20504;-72
2023/01/19 08:12:56;;;;;;;2.40;2.03;;;11.40;99.90;;;;;;6120837;23;20169;-73
2023/01/19 08:15:26;;;;;;;2.87;1.90;;;11.40;99.90;;;;;;6095573;23;20160;-72
2023/01/19 08:18:08;;;;;;;2.83;2.33;;;11.40;99.90;;;;;;6107691;23;20173;-72
2023/01/19 08:20:35;;;;;;;4.43;2.63;;;11.50;99.90;;;;;;6121071;23;20164;-72
2023/01/19 08:23:01;;;;;;;3.73;2.37;;;11.50;99.90;;;;;;6122047;23;20175;-73
2023/01/19 08:25:41;;;;;;;2.97;2.50;;;11.60;99.90;;;;;;6119886;23;20172;-72
2023/01/19 08:28:09;;;;;;;3.77;2.57;;;11.60;99.90;;;;;;6119372;23;20783;-73
2023/01/19 08:30:37;;;;;;;3.10;2.80;;;11.70;99.90;;;;;;6117484;23;20223;-72
2023/01/19 08:33:08;;;;;;;5.50;2.90;;;11.70;99.90;;;;;;6152772;23;20900;-73
2023/01/19 08:35:40;;;;;;;3.33;2.80;;;11.90;99.90;;;;;;6153626;23;20176;-72
2023/01/19 08:38:08;;;;;;;3.07;2.70;;;12.10;99.90;;;;;;6092926;23;20215;-73
2023/01/19 08:40:39;;;;;;;2.50;2.30;;;12.20;99.90;;;;;;6097285;23;20193;-72
2023/01/19 08:43:11;;;;;;;2.90;2.20;;;12.20;99.90;;;;;;6119687;23;20674;-72
2023/01/19 08:45:41;;;;;;;6.30;2.27;;;12.20;99.90;;;;;;6153438;23;20244;-72
2023/01/19 08:48:08;;;;;;;4.93;2.40;;;12.20;99.90;;;;;;6154790;23;20528;-73
2023/01/19 08:50:35;;;;;;;3.70;2.67;;;12.20;99.90;;;;;;6155975;23;20254;-73
2023/01/19 08:53:06;;;;;;;2.83;2.30;;;12.20;99.90;;;;;;6120746;23;20172;-72
2023/01/19 08:55:37;;;;;;;4.17;2.30;;;12.30;99.90;;;;;;6154021;23;20161;-72
2023/01/19 08:58:06;;;;;;;6.40;2.90;;;12.30;99.90;;;;;;6155659;23;20164;-73
2023/01/19 09:00:36;;;;;;;2.27;2.07;;;12.40;99.90;;;;;;6153824;23;20199;-72
2023/01/19 09:03:06;;;;;;;6.30;2.40;;;12.50;99.90;;;;;;6117413;23;20237;-73
2023/01/19 09:05:37;;;;;;;4.10;2.30;;;12.70;99.90;;;;;;6118983;23;20169;-73
2023/01/19 09:08:10;;;;;;;5.63;2.40;;;12.70;99.90;;;;;;6094274;23;20160;-73
2023/01/19 09:10:38;;;;;;;3.80;2.30;;;12.70;99.90;;;;;;6118789;23;20883;-73
2023/01/19 09:13:09;;;;;;;5.73;2.07;;;12.70;99.90;;;;;;6155309;23;20876;-73
2023/01/19 09:15:37;;;;;;;2.70;2.20;;;12.80;99.90;;;;;;6152440;23;20165;-73
2023/01/19 09:18:12;;;;;;;2.60;2.30;;;12.90;99.90;;;;;;6153292;23;20505;-73
2023/01/19 09:20:45;;;;;;;3.17;2.10;;;13.10;99.90;;;;;;6118423;23;20164;-73
2023/01/19 09:23:17;;;;;;;4.37;2.57;;;13.20;99.90;;;;;;6154481;23;20161;-73
2023/01/19 09:25:46;;;;;;;7.53;2.30;;;13.20;99.90;;;;;;6118092;23;20468;-73
2023/01/19 09:28:16;;;;;;;3.47;2.50;;;13.20;99.90;;;;;;6116841;23;20164;-73
2023/01/19 09:30:44;;;;;;;3.53;2.07;;;13.20;99.90;;;;;;6116318;23;20677;-73
2023/01/19 09:33:13;;;;;;;4.43;1.93;;;13.30;99.90;;;;;;6091294;23;20161;-73
2023/01/19 09:35:42;;;;;;;2.80;2.07;;;13.40;99.90;;;;;;6151914;23;20488;-73
2023/01/19 09:38:10;;;;;;;3.53;1.80;;;13.40;99.90;;;;;;6152541;23;20160;-72
2023/01/19 09:40:43;;;;;;;3.17;2.23;;;13.50;99.90;;;;;;6116021;23;20634;-73
2023/01/19 09:43:20;;;;;;;2.87;1.90;;;13.50;99.90;;;;;;6117149;23;20168;-73
2023/01/19 09:46:23;;;;;;;9.33;2.17;;;13.60;99.90;;;;;;6117218;23;20172;-73
2023/01/19 09:49:03;;;;;;;4.13;2.00;;;13.70;99.90;;;;;;6154154;23;20775;-73
2023/01/19 09:51:38;;;;;;;2.63;1.90;;;13.60;99.90;;;;;;6117085;23;20189;-73
2023/01/19 09:54:28;;;;;;;2.10;1.80;;;13.70;99.90;;;;;;6115054;23;20265;-73
2023/01/19 09:56:54;;;;;;;2.30;1.90;;;13.70;99.90;;;;;;6093295;23;20183;-73
2023/01/19 09:59:24;;;;;;;5.63;1.80;;;13.80;99.90;;;;;;6153095;23;20199;-73
2023/01/19 10:02:03;;;;;;;2.53;1.80;;;13.90;99.90;;;;;;6117450;23;20729;-73
2023/01/19 10:19:40;;;;;;;3.00;2.07;;;14.00;99.90;;;;;;5079954;27;21097;-71
2023/01/19 10:22:25;;;;;;;2.53;1.73;;;14.30;99.90;;;;;;5045247;28;20249;-71
2023/01/19 10:25:06;;;;;;;3.00;1.80;;;14.30;99.90;;;;;;5042518;28;20191;-72
2023/01/19 10:27:36;;;;;;;4.33;1.50;;;14.40;99.90;;;;;;5047710;28;20201;-72
2023/01/19 10:30:05;;;;;;;2.67;1.70;;;14.60;99.90;;;;;;5055480;28;20194;-72
2023/01/19 10:32:37;;;;;;;4.30;1.70;;;14.60;99.90;;;;;;5054686;28;20227;-72
2023/01/19 10:35:22;;;;;;;4.50;1.70;;;14.50;99.90;;;;;;5052748;28;20200;-72
2023/01/19 10:37:51;;;;;;;1.73;1.60;;;14.60;99.90;;;;;;5059417;28;20222;-72
2023/01/19 10:40:47;;;;;;;2.23;1.67;;;14.70;99.90;;;;;;5071340;28;20211;-72
2023/01/19 10:43:58;;;;;;;2.60;1.50;;;14.80;99.90;;;;;;5051054;28;20226;-72
2023/01/19 10:46:58;;;;;;;2.10;1.60;;;14.80;99.90;;;;;;4993232;28;20712;-72
2023/01/19 10:49:36;;;;;;;2.13;1.60;;;14.90;99.90;;;;;;5057402;28;20609;-72
2023/01/19 10:52:06;;;;;;;2.37;1.80;;;14.90;99.90;;;;;;5054044;28;20203;-70
2023/01/19 10:54:36;;;;;;;2.43;1.63;;;15.00;99.90;;;;;;5056309;28;20191;-71
2023/01/19 10:57:09;;;;;;;3.90;1.60;;;15.10;99.90;;;;;;5061143;28;20210;-69
2023/01/19 10:59:48;;;;;;;2.87;1.60;;;15.10;99.90;;;;;;5062476;28;20874;-69
2023/01/19 11:02:22;;;;;;;6.30;2.80;;;15.20;99.90;;;;;;5049421;28;20313;-69
2023/01/19 11:04:51;;;;;;;3.30;1.50;;;15.20;99.90;;;;;;5059864;28;20206;-71
2023/01/19 11:07:32;;;;;;;3.43;1.80;;;15.20;99.90;;;;;;5056624;28;20658;-72
2023/01/19 11:10:29;;;;;;;6.50;2.10;;;15.20;99.90;;;;;;5038783;28;20674;-71
2023/01/19 11:13:15;;;;;;;2.63;1.70;;;15.30;99.90;;;;;;5059750;28;20284;-69
2023/01/19 11:15:58;;;;;;;1.77;1.50;;;15.60;99.90;;;;;;5053947;28;20240;-69
2023/01/19 11:18:31;;;;;;;2.70;1.70;;;15.70;99.90;;;;;;5062220;28;20223;-71
2023/01/19 11:21:06;;;;;;;3.47;1.60;;;15.80;99.90;;;;;;5042127;28;20199;-72
2023/01/19 11:23:49;;;;;;;3.43;1.93;;;15.80;99.90;;;;;;5025108;28;20735;-72
2023/01/19 11:26:43;;;;;;;3.57;2.00;;;15.80;99.90;;;;;;5045012;28;20199;-72
2023/01/19 11:29:25;;;;;;;2.20;1.80;;;15.90;99.90;;;;;;5034897;28;20241;-72
2023/01/19 11:31:54;;;;;;;2.67;1.60;;;16.10;99.90;;;;;;5043418;28;20203;-72
2023/01/19 11:34:37;;;;;;;5.90;2.10;;;16.00;99.90;;;;;;5052433;28;20190;-72
2023/01/19 11:37:19;;;;;;;4.53;1.80;;;16.00;99.90;;;;;;5032302;28;20306;-72
2023/01/19 11:40:10;;;;;;;2.03;1.80;;;15.90;99.90;;;;;;5039583;28;20187;-71
2023/01/19 11:42:36;;;;;;;2.53;1.97;;;15.90;99.90;;;;;;5041745;28;20229;-71
2023/01/19 11:45:16;;;;;;;3.87;2.03;;;16.00;99.90;;;;;;5043840;28;20219;-71
2023/01/19 11:47:44;;;;;;;4.77;2.13;;;16.00;99.90;;;;;;5026767;28;20198;-71
2023/01/19 11:50:44;;;;;;;3.77;1.90;;;16.00;99.90;;;;;;5043690;28;20212;-71
2023/01/19 11:53:28;;;;;;;5.50;2.10;;;16.00;99.90;;;;;;5027382;28;20204;-69
2023/01/19 11:56:14;;;;;;;2.30;2.10;;;16.10;99.90;;;;;;5038558;28;20192;-71
2023/01/19 11:58:48;;;;;;;3.13;1.93;;;16.10;99.90;;;;;;5048395;28;20211;-72
2023/01/19 12:01:29;;;;;;;2.23;1.93;;;16.10;99.90;;;;;;5040094;28;20295;-72
2023/01/19 12:04:21;;;;;;;4.60;2.33;;;16.10;99.90;;;;;;5064196;28;20278;-71
2023/01/19 12:06:54;;;;;;;3.47;2.40;;;16.10;99.90;;;;;;5047355;28;20663;-71
2023/01/19 12:09:35;;;;;;;5.40;2.17;;;16.10;99.90;;;;;;5043338;28;20188;-72
2023/01/19 12:12:28;;;;;;;5.57;2.10;;;16.10;99.90;;;;;;5030608;28;20187;-71
2023/01/19 12:15:31;;;;;;;3.03;2.10;;;16.10;99.90;;;;;;5046030;28;20329;-72
2023/01/19 12:18:04;;;;;;;2.80;2.30;;;16.10;99.90;;;;;;5039855;28;20215;-72
2023/01/19 12:20:47;;;;;;;2.97;2.30;;;16.20;99.90;;;;;;5032117;28;20196;-69
2023/01/19 12:23:29;;;;;;;5.50;2.40;;;16.10;99.90;;;;;;5046454;28;20188;-71
2023/01/19 12:25:55;;;;;;;2.47;2.10;;;16.00;99.90;;;;;;5037045;28;20195;-71
2023/01/19 12:28:36;;;;;;;4.77;2.37;;;16.10;99.90;;;;;;5042784;28;20186;-69
2023/01/19 12:31:04;;;;;;;4.13;2.20;;;16.10;99.90;;;;;;5038054;28;20301;-71
2023/01/19 12:33:38;;;;;;;3.17;2.20;;;16.00;99.90;;;;;;5045924;28;20746;-72
2023/01/19 12:36:08;;;;;;;4.00;2.23;;;16.00;99.90;;;;;;5057681;28;20512;-70
2023/01/19 12:38:46;;;;;;;5.40;2.30;;;16.00;99.90;;;;;;5027094;28;20302;-70
2023/01/19 12:41:19;;;;;;;2.77;1.90;;;15.90;99.90;;;;;;5040929;28;20184;-72
2023/01/19 12:44:08;;;;;;;3.40;2.50;;;15.90;99.90;;;;;;5065400;28;20265;-72
2023/01/19 12:46:53;;;;;;;3.57;2.10;;;15.90;99.90;;;;;;5033622;28;20192;-71
2023/01/19 12:49:33;;;;;;;4.93;2.00;;;15.80;99.90;;;;;;5041909;28;20192;-71
2023/01/19 12:52:28;;;;;;;4.20;2.10;;;15.80;99.90;;;;;;5040125;28;20202;-71
2023/01/19 12:55:05;;;;;;;4.13;2.40;;;15.80;99.90;;;;;;5041279;28;20199;-71
2023/01/19 12:57:57;;;;;;;3.57;1.90;;;15.70;99.90;;;;;;5051599;28;20219;-71
2023/01/19 13:00:32;;;;;;;3.33;2.30;;;15.60;99.90;;;;;;5039375;28;20250;-71
2023/01/19 13:03:18;;;;;;;5.37;2.20;;;15.70;99.90;;;;;;5038859;28;20190;-71
2023/01/19 13:05:55;;;;;;;3.40;2.20;;;15.60;99.90;;;;;;5051214;28;20187;-71
2023/01/19 13:08:55;;;;;;;2.67;2.47;;;15.60;99.90;;;;;;5040382;28;20192;-71
2023/01/19 13:11:22;;;;;;;3.93;2.40;;;15.60;99.90;;;;;;5035198;28;20620;-71
2023/01/19 13:13:48;;;;;;;2.67;2.43;;;15.50;99.90;;;;;;5050131;28;20238;-71
2023/01/19 13:16:17;;;;;;;3.83;2.50;;;15.50;99.90;;;;;;5033078;28;20718;-71
2023/01/19 13:18:53;;;;;;;6.03;2.20;;;15.50;99.90;;;;;;5023289;28;20302;-71
2023/01/19 13:21:33;;;;;;;3.87;2.30;;;15.40;99.90;;;;;;5033162;28;20278;-71
2023/01/19 13:24:13;;;;;;;3.23;2.30;;;15.40;99.90;;;;;;5026917;28;20199;-71
2023/01/19 13:26:48;;;;;;;2.30;2.10;;;15.40;99.90;;;;;;5045957;28;20179;-71
2023/01/19 13:29:40;;;;;;;7.03;2.50;;;15.30;99.90;;;;;;5044294;28;20764;-71
2023/01/19 13:32:18;;;;;;;5.87;2.80;;;15.30;99.90;;;;;;5038619;28;20194;-71
2023/01/19 13:34:56;;;;;;;4.67;2.70;;;15.30;99.90;;;;;;5041726;28;20188;-71
2023/01/19 13:37:32;;;;;;;2.87;2.10;;;15.20;99.90;;;;;;5068620;28;20208;-71
2023/01/19 13:39:59;;;;;;;3.37;2.70;;;15.10;99.90;;;;;;5041163;28;20559;-71
2023/01/19 13:42:33;;;;;;;3.30;2.37;;;15.10;99.90;;;;;;5046713;28;20222;-71
2023/01/19 13:45:14;;;;;;;2.97;2.43;;;15.10;99.90;;;;;;5046376;28;20695;-71